M V Trinidad — LAIY4 — position and weather

sailwx.info

Track history (hours):
 
Tides and Currents Weather Stations Pressure Air Temp Water Temp Dewpoint Dewpoint Depression Visibility Wind Speed Wind Dir Waves Ship Positions

M V Trinidad

Last reported at 2014-Nov-11 23:33 UTC. Time now 2014-Nov-27 23:05 UTC.
Position N 32°52' W 120°08'.
Warning: this ship's position is 15 days out of date.

Length 189 m; draft 8.8 m.

Type: Cargo ship. MMSI: 257425411.

Date/timePositionNaut miles runAvg speedWind from/ knotsBaromVisibWave heightAir tempDewpointWater temp
2014-Nov-11 23:33N 32°52' W 120°08'1514.4
2014-Nov-11 22:32N 32°48' W 119°52'8514.3
2014-Nov-11 16:33N 32°35' W 118°11'1414.3
2014-Nov-11 15:33N 32°35' W 117°54'1414.3
2014-Nov-11 14:33N 32°36' W 117°37'1414.2
2014-Nov-11 13:34N 32°36' W 117°21'8 7.9
2014-Nov-11 12:34N 32°41' W 117°14'6 5.7
2014-Nov-11 11:33N 32°39' W 117°07'0 0.5
2014-Nov-11 10:31N 32°39' W 117°07'0 0.0
2014-Nov-11 09:31N 32°39' W 117°07'0 0.0
2014-Nov-11 08:31N 32°39' W 117°07'0 0.0
2014-Nov-11 07:31N 32°39' W 117°07'0 0.0
2014-Nov-11 06:31N 32°39' W 117°07'0 0.0
2014-Nov-11 05:31N 32°39' W 117°07'0 0.0
2014-Nov-11 04:31N 32°39' W 117°07'0 0.0
2014-Nov-11 03:31N 32°39' W 117°07'0 0.0
2014-Nov-11 02:31N 32°39' W 117°07'0 0.0
2014-Nov-11 01:31N 32°39' W 117°07'0 0.0
2014-Nov-11 00:31N 32°39' W 117°07'0 0.0
2014-Nov-10 23:31N 32°39' W 117°07'0 0.0
2014-Nov-10 22:31N 32°39' W 117°07'0 0.0
2014-Nov-10 21:28N 32°39' W 117°07'0 0.0
2014-Nov-10 20:31N 32°39' W 117°07'1 0.6
2014-Nov-10 19:33N 32°39' W 117°07'6 6.0
2014-Nov-10 18:33N 32°42' W 117°14'6 5.9
2014-Nov-10 17:33N 32°36' W 117°16'1010.1
2014-Nov-10 16:33N 32°43' W 117°25'3 3.0
2014-Nov-10 15:33N 32°45' W 117°28'1 0.6
2014-Nov-10 14:33N 32°44' W 117°29'1 0.7
2014-Nov-10 13:33N 32°44' W 117°29'1 0.8
2014-Nov-10 12:33N 32°43' W 117°29'1 0.8
2014-Nov-10 11:33N 32°42' W 117°29'1 0.6
2014-Nov-10 10:33N 32°42' W 117°29'0 0.5
2014-Nov-10 09:33N 32°41' W 117°30'1 0.6
2014-Nov-10 08:33N 32°41' W 117°30'0 0.1
2014-Nov-10 07:33N 32°41' W 117°30'0 0.3
2014-Nov-10 06:33N 32°40' W 117°30'0 0.1
2014-Nov-10 05:33N 32°40' W 117°30'0 0.3
2014-Nov-10 04:33N 32°41' W 117°30'0 0.5
2014-Nov-10 03:33N 32°40' W 117°30'1 0.5
2014-Nov-10 02:33N 32°40' W 117°31'0 0.4
2014-Nov-10 01:33N 32°41' W 117°31'3 3.4
2014-Nov-10 00:33N 32°42' W 117°35'1 0.8
2014-Nov-09 23:33N 32°41' W 117°36'1 0.6
2014-Nov-09 22:33N 32°40' W 117°36'8 8.4
2014-Nov-09 21:33N 32°38' W 117°26'5 5.3
2014-Nov-09 20:33N 32°36' W 117°20'6 5.8
2014-Nov-09 19:33N 32°39' W 117°26'1312.8
2014-Nov-09 18:33N 32°40' W 117°41'1212.3
2014-Nov-09 17:33N 32°44' W 117°55'1313.2
2014-Nov-09 16:33N 32°53' W 118°07'1313.2
2014-Nov-09 15:33N 33°02' W 118°18'1312.8
2014-Nov-09 14:33N 33°11' W 118°30'1312.5
2014-Nov-09 13:33N 33°20' W 118°39'1312.5
2014-Nov-09 12:33N 33°30' W 118°49'1212.5
2014-Nov-09 11:33N 33°42' W 118°53'1312.8
2014-Nov-09 10:33N 33°54' W 118°59'1312.6
2014-Nov-09 09:33N 34°00' W 119°12'8 8.4
2014-Nov-09 08:33N 34°09' W 119°13'1 0.6
2014-Nov-09 07:33N 34°09' W 119°12'0 0.0
2014-Nov-09 06:34N 34°09' W 119°12'0 0.0
2014-Nov-09 05:33N 34°09' W 119°12'0 0.0
2014-Nov-09 04:34N 34°09' W 119°12'0 0.0
2014-Nov-09 03:34N 34°09' W 119°12'0 0.0
2014-Nov-09 02:34N 34°09' W 119°12'0 0.0
2014-Nov-09 01:31N 34°09' W 119°12'0 0.0
2014-Nov-09 00:34N 34°09' W 119°12'0 0.0
2014-Nov-08 23:33N 34°09' W 119°12'0 0.0
2014-Nov-08 22:31N 34°09' W 119°12'0 0.0
2014-Nov-08 21:34N 34°09' W 119°12'0 0.0
2014-Nov-08 20:33N 34°09' W 119°12'0 0.0
2014-Nov-08 19:33N 34°09' W 119°12'0 0.0
2014-Nov-08 18:30N 34°09' W 119°12'0 0.0
2014-Nov-08 17:30N 34°09' W 119°12'0 0.0
2014-Nov-08 16:28N 34°09' W 119°12'0 0.0
2014-Nov-08 15:33N 34°09' W 119°12'1 0.6
2014-Nov-08 14:33N 34°09' W 119°13'3 3.0
2014-Nov-08 13:33N 34°06' W 119°15'5 4.7
2014-Nov-08 12:34N 34°03' W 119°19'1413.8
2014-Nov-08 11:34N 34°07' W 119°35'1414.3
2014-Nov-08 10:34N 34°11' W 119°52'1413.7
2014-Nov-08 09:33N 34°14' W 120°08'1313.1
2014-Nov-08 08:33N 34°18' W 120°23'1312.4
2014-Nov-08 07:32N 34°21' W 120°38'1212.1
2014-Nov-08 06:33N 34°24' W 120°52'45 9.0
2014-Nov-08 01:33N 34°42' W 121°42'1212.4
2014-Nov-08 00:34N 34°47' W 121°56'1313.1
2014-Nov-07 23:34N 34°52' W 122°11'1313.2
2014-Nov-07 22:34N 34°58' W 122°25'1313.1
2014-Nov-07 21:34N 35°04' W 122°39'1312.8
2014-Nov-07 20:34N 35°09' W 122°54'1312.9
2014-Nov-07 19:33N 35°14' W 123°08'8 7.5
2014-Nov-07 18:32N 35°17' W 123°17'7 7.6
2014-Nov-07 17:33N 35°21' W 123°25'5 4.8
2014-Nov-07 16:30N 35°23' W 123°31'  
Track history (hours):
 
Tides and Currents Weather Stations Pressure Air Temp Water Temp Dewpoint Dewpoint Depression Visibility Wind Speed Wind Dir Waves Ship Positions

M V Trinidad

Last reported at 2014-Nov-11 23:33 UTC. Time now 2014-Nov-27 23:05 UTC.
Position N 32°52' W 120°08'.
Warning: this ship's position is 15 days out of date.

Length 189 m; draft 8.8 m.

Type: Cargo ship. MMSI: 257425411.

Date/timePositionNaut miles runAvg speedWind from/ knotsBaromVisibWave heightAir tempDewpointWater temp
2014-Nov-11 23:33N 32°52' W 120°08'1514.4
2014-Nov-11 22:32N 32°48' W 119°52'8514.3
2014-Nov-11 16:33N 32°35' W 118°11'1414.3
2014-Nov-11 15:33N 32°35' W 117°54'1414.3
2014-Nov-11 14:33N 32°36' W 117°37'1414.2
2014-Nov-11 13:34N 32°36' W 117°21'8 7.9
2014-Nov-11 12:34N 32°41' W 117°14'6 5.7
2014-Nov-11 11:33N 32°39' W 117°07'0 0.5
2014-Nov-11 10:31N 32°39' W 117°07'0 0.0
2014-Nov-11 09:31N 32°39' W 117°07'0 0.0
2014-Nov-11 08:31N 32°39' W 117°07'0 0.0
2014-Nov-11 07:31N 32°39' W 117°07'0 0.0
2014-Nov-11 06:31N 32°39' W 117°07'0 0.0
2014-Nov-11 05:31N 32°39' W 117°07'0 0.0
2014-Nov-11 04:31N 32°39' W 117°07'0 0.0
2014-Nov-11 03:31N 32°39' W 117°07'0 0.0
2014-Nov-11 02:31N 32°39' W 117°07'0 0.0
2014-Nov-11 01:31N 32°39' W 117°07'0 0.0
2014-Nov-11 00:31N 32°39' W 117°07'0 0.0
2014-Nov-10 23:31N 32°39' W 117°07'0 0.0
2014-Nov-10 22:31N 32°39' W 117°07'0 0.0
2014-Nov-10 21:28N 32°39' W 117°07'0 0.0
2014-Nov-10 20:31N 32°39' W 117°07'1 0.6
2014-Nov-10 19:33N 32°39' W 117°07'6 6.0
2014-Nov-10 18:33N 32°42' W 117°14'6 5.9
2014-Nov-10 17:33N 32°36' W 117°16'1010.1
2014-Nov-10 16:33N 32°43' W 117°25'3 3.0
2014-Nov-10 15:33N 32°45' W 117°28'1 0.6
2014-Nov-10 14:33N 32°44' W 117°29'1 0.7
2014-Nov-10 13:33N 32°44' W 117°29'1 0.8
2014-Nov-10 12:33N 32°43' W 117°29'1 0.8
2014-Nov-10 11:33N 32°42' W 117°29'1 0.6
2014-Nov-10 10:33N 32°42' W 117°29'0 0.5
2014-Nov-10 09:33N 32°41' W 117°30'1 0.6
2014-Nov-10 08:33N 32°41' W 117°30'0 0.1
2014-Nov-10 07:33N 32°41' W 117°30'0 0.3
2014-Nov-10 06:33N 32°40' W 117°30'0 0.1
2014-Nov-10 05:33N 32°40' W 117°30'0 0.3
2014-Nov-10 04:33N 32°41' W 117°30'0 0.5
2014-Nov-10 03:33N 32°40' W 117°30'1 0.5
2014-Nov-10 02:33N 32°40' W 117°31'0 0.4
2014-Nov-10 01:33N 32°41' W 117°31'3 3.4
2014-Nov-10 00:33N 32°42' W 117°35'1 0.8
2014-Nov-09 23:33N 32°41' W 117°36'1 0.6
2014-Nov-09 22:33N 32°40' W 117°36'8 8.4
2014-Nov-09 21:33N 32°38' W 117°26'5 5.3
2014-Nov-09 20:33N 32°36' W 117°20'6 5.8
2014-Nov-09 19:33N 32°39' W 117°26'1312.8
2014-Nov-09 18:33N 32°40' W 117°41'1212.3
2014-Nov-09 17:33N 32°44' W 117°55'1313.2
2014-Nov-09 16:33N 32°53' W 118°07'1313.2
2014-Nov-09 15:33N 33°02' W 118°18'1312.8
2014-Nov-09 14:33N 33°11' W 118°30'1312.5
2014-Nov-09 13:33N 33°20' W 118°39'1312.5
2014-Nov-09 12:33N 33°30' W 118°49'1212.5
2014-Nov-09 11:33N 33°42' W 118°53'1312.8
2014-Nov-09 10:33N 33°54' W 118°59'1312.6
2014-Nov-09 09:33N 34°00' W 119°12'8 8.4
2014-Nov-09 08:33N 34°09' W 119°13'1 0.6
2014-Nov-09 07:33N 34°09' W 119°12'0 0.0
2014-Nov-09 06:34N 34°09' W 119°12'0 0.0
2014-Nov-09 05:33N 34°09' W 119°12'0 0.0
2014-Nov-09 04:34N 34°09' W 119°12'0 0.0
2014-Nov-09 03:34N 34°09' W 119°12'0 0.0
2014-Nov-09 02:34N 34°09' W 119°12'0 0.0
2014-Nov-09 01:31N 34°09' W 119°12'0 0.0
2014-Nov-09 00:34N 34°09' W 119°12'0 0.0
2014-Nov-08 23:33N 34°09' W 119°12'0 0.0
2014-Nov-08 22:31N 34°09' W 119°12'0 0.0
2014-Nov-08 21:34N 34°09' W 119°12'0 0.0
2014-Nov-08 20:33N 34°09' W 119°12'0 0.0
2014-Nov-08 19:33N 34°09' W 119°12'0 0.0
2014-Nov-08 18:30N 34°09' W 119°12'0 0.0
2014-Nov-08 17:30N 34°09' W 119°12'0 0.0
2014-Nov-08 16:28N 34°09' W 119°12'0 0.0
2014-Nov-08 15:33N 34°09' W 119°12'1 0.6
2014-Nov-08 14:33N 34°09' W 119°13'3 3.0
2014-Nov-08 13:33N 34°06' W 119°15'5 4.7
2014-Nov-08 12:34N 34°03' W 119°19'1413.8
2014-Nov-08 11:34N 34°07' W 119°35'1414.3
2014-Nov-08 10:34N 34°11' W 119°52'1413.7
2014-Nov-08 09:33N 34°14' W 120°08'1313.1
2014-Nov-08 08:33N 34°18' W 120°23'1312.4
2014-Nov-08 07:32N 34°21' W 120°38'1212.1
2014-Nov-08 06:33N 34°24' W 120°52'45 9.0
2014-Nov-08 01:33N 34°42' W 121°42'1212.4
2014-Nov-08 00:34N 34°47' W 121°56'1313.1
2014-Nov-07 23:34N 34°52' W 122°11'1313.2
2014-Nov-07 22:34N 34°58' W 122°25'1313.1
2014-Nov-07 21:34N 35°04' W 122°39'1312.8
2014-Nov-07 20:34N 35°09' W 122°54'1312.9
2014-Nov-07 19:33N 35°14' W 123°08'8 7.5
2014-Nov-07 18:32N 35°17' W 123°17'7 7.6
2014-Nov-07 17:33N 35°21' W 123°25'5 4.8
2014-Nov-07 16:30N 35°23' W 123°31'  

Dump ship's entire track history